sensor_id;sensor_type;location;lat;lon;timestamp;P1;durP1;ratioP1;P2;durP2;ratioP2
44036;SDS011;62488;-37.670;-63.532;2022-12-10T00:01:41;14.85;;;1.58;;
44036;SDS011;62488;-37.670;-63.532;2022-12-10T00:04:10;5.35;;;1.40;;
44036;SDS011;62488;-37.670;-63.532;2022-12-10T00:06:38;9.80;;;1.05;;
44036;SDS011;62488;-37.670;-63.532;2022-12-10T00:09:09;7.13;;;0.98;;
44036;SDS011;62488;-37.670;-63.532;2022-12-10T00:11:38;30.27;;;3.10;;
44036;SDS011;62488;-37.670;-63.532;2022-12-10T00:14:05;4.88;;;1.17;;
44036;SDS011;62488;-37.670;-63.532;2022-12-10T00:16:35;12.77;;;2.35;;
44036;SDS011;62488;-37.670;-63.532;2022-12-10T00:19:03;21.83;;;2.95;;
44036;SDS011;62488;-37.670;-63.532;2022-12-10T00:21:34;23.98;;;2.58;;
44036;SDS011;62488;-37.670;-63.532;2022-12-10T00:24:02;8.00;;;1.52;;
44036;SDS011;62488;-37.670;-63.532;2022-12-10T00:26:31;20.42;;;1.83;;
44036;SDS011;62488;-37.670;-63.532;2022-12-10T00:29:01;16.75;;;2.55;;
44036;SDS011;62488;-37.670;-63.532;2022-12-10T00:31:30;25.40;;;2.92;;
44036;SDS011;62488;-37.670;-63.532;2022-12-10T00:34:00;24.77;;;2.60;;
44036;SDS011;62488;-37.670;-63.532;2022-12-10T00:36:31;12.65;;;1.70;;
44036;SDS011;62488;-37.670;-63.532;2022-12-10T00:39:00;21.85;;;2.58;;
44036;SDS011;62488;-37.670;-63.532;2022-12-10T00:41:28;24.00;;;3.28;;
44036;SDS011;62488;-37.670;-63.532;2022-12-10T00:43:55;10.68;;;2.15;;
44036;SDS011;62488;-37.670;-63.532;2022-12-10T00:46:24;20.30;;;2.08;;
44036;SDS011;62488;-37.670;-63.532;2022-12-10T00:48:53;18.35;;;2.75;;
44036;SDS011;62488;-37.670;-63.532;2022-12-10T00:51:21;12.77;;;1.98;;
44036;SDS011;62488;-37.670;-63.532;2022-12-10T00:53:51;48.05;;;5.22;;
44036;SDS011;62488;-37.670;-63.532;2022-12-10T00:56:21;21.20;;;3.25;;
44036;SDS011;62488;-37.670;-63.532;2022-12-10T00:58:52;26.08;;;2.28;;
44036;SDS011;62488;-37.670;-63.532;2022-12-10T01:01:26;25.77;;;2.88;;
44036;SDS011;62488;-37.670;-63.532;2022-12-10T01:04:10;30.15;;;3.15;;
44036;SDS011;62488;-37.670;-63.532;2022-12-10T01:06:47;22.05;;;5.28;;
44036;SDS011;62488;-37.670;-63.532;2022-12-10T01:09:17;18.15;;;2.95;;
44036;SDS011;62488;-37.670;-63.532;2022-12-10T01:11:51;7.43;;;3.17;;
44036;SDS011;62488;-37.670;-63.532;2022-12-10T01:14:23;13.15;;;3.17;;
44036;SDS011;62488;-37.670;-63.532;2022-12-10T01:16:53;23.88;;;2.95;;
44036;SDS011;62488;-37.670;-63.532;2022-12-10T01:19:22;17.73;;;1.75;;
44036;SDS011;62488;-37.670;-63.532;2022-12-10T01:21:50;24.92;;;4.10;;
44036;SDS011;62488;-37.670;-63.532;2022-12-10T01:24:19;19.70;;;3.47;;
44036;SDS011;62488;-37.670;-63.532;2022-12-10T01:26:46;14.93;;;4.45;;
44036;SDS011;62488;-37.670;-63.532;2022-12-10T01:29:16;13.02;;;3.05;;
44036;SDS011;62488;-37.670;-63.532;2022-12-10T01:31:44;12.75;;;2.38;;
44036;SDS011;62488;-37.670;-63.532;2022-12-10T01:34:13;13.60;;;2.47;;
44036;SDS011;62488;-37.670;-63.532;2022-12-10T01:36:41;10.20;;;2.03;;
44036;SDS011;62488;-37.670;-63.532;2022-12-10T01:39:11;10.70;;;2.10;;
44036;SDS011;62488;-37.670;-63.532;2022-12-10T01:41:45;14.57;;;2.85;;
44036;SDS011;62488;-37.670;-63.532;2022-12-10T01:46:48;21.48;;;3.65;;
44036;SDS011;62488;-37.670;-63.532;2022-12-10T01:49:19;24.00;;;3.03;;
44036;SDS011;62488;-37.670;-63.532;2022-12-10T01:51:53;23.02;;;3.65;;
44036;SDS011;62488;-37.670;-63.532;2022-12-10T01:54:23;24.65;;;3.65;;
44036;SDS011;62488;-37.670;-63.532;2022-12-10T01:57:02;14.82;;;2.13;;
44036;SDS011;62488;-37.670;-63.532;2022-12-10T01:59:35;17.80;;;1.80;;
44036;SDS011;62488;-37.670;-63.532;2022-12-10T02:02:10;13.45;;;1.90;;
44036;SDS011;62488;-37.670;-63.532;2022-12-10T02:04:44;15.30;;;2.28;;
44036;SDS011;62488;-37.670;-63.532;2022-12-10T02:07:40;13.55;;;3.28;;
44036;SDS011;62488;-37.670;-63.532;2022-12-10T02:18:47;13.43;;;2.15;;
44036;SDS011;62488;-37.670;-63.532;2022-12-10T02:21:22;20.02;;;2.95;;
44036;SDS011;62488;-37.670;-63.532;2022-12-10T02:24:03;14.07;;;2.78;;
44036;SDS011;62488;-37.670;-63.532;2022-12-10T02:26:40;12.65;;;2.55;;
44036;SDS011;62488;-37.670;-63.532;2022-12-10T02:29:20;7.85;;;2.13;;
44036;SDS011;62488;-37.670;-63.532;2022-12-10T02:34:38;9.48;;;2.22;;
44036;SDS011;62488;-37.670;-63.532;2022-12-10T02:37:24;5.70;;;2.08;;
44036;SDS011;62488;-37.670;-63.532;2022-12-10T02:39:56;9.63;;;1.77;;
44036;SDS011;62488;-37.670;-63.532;2022-12-10T02:42:30;11.23;;;2.40;;
44036;SDS011;62488;-37.670;-63.532;2022-12-10T02:45:00;11.88;;;3.53;;
44036;SDS011;62488;-37.670;-63.532;2022-12-10T02:47:31;15.15;;;2.60;;
44036;SDS011;62488;-37.670;-63.532;2022-12-10T02:49:59;6.90;;;2.45;;
44036;SDS011;62488;-37.670;-63.532;2022-12-10T02:52:27;25.42;;;3.03;;
44036;SDS011;62488;-37.670;-63.532;2022-12-10T02:55:00;9.18;;;1.75;;
44036;SDS011;62488;-37.670;-63.532;2022-12-10T03:00:11;17.30;;;2.35;;
44036;SDS011;62488;-37.670;-63.532;2022-12-10T03:02:48;13.85;;;2.17;;
44036;SDS011;62488;-37.670;-63.532;2022-12-10T03:08:03;24.27;;;2.13;;
44036;SDS011;62488;-37.670;-63.532;2022-12-10T03:13:15;10.30;;;2.05;;
44036;SDS011;62488;-37.670;-63.532;2022-12-10T03:15:47;7.60;;;1.58;;
44036;SDS011;62488;-37.670;-63.532;2022-12-10T03:18:17;13.88;;;2.15;;
44036;SDS011;62488;-37.670;-63.532;2022-12-10T03:20:48;12.68;;;1.95;;
44036;SDS011;62488;-37.670;-63.532;2022-12-10T03:23:17;14.50;;;2.22;;
44036;SDS011;62488;-37.670;-63.532;2022-12-10T03:25:49;9.32;;;2.20;;
44036;SDS011;62488;-37.670;-63.532;2022-12-10T03:28:18;11.13;;;1.83;;
44036;SDS011;62488;-37.670;-63.532;2022-12-10T03:30:47;19.58;;;2.65;;
44036;SDS011;62488;-37.670;-63.532;2022-12-10T03:33:18;12.38;;;2.42;;
44036;SDS011;62488;-37.670;-63.532;2022-12-10T03:35:48;12.52;;;1.95;;
44036;SDS011;62488;-37.670;-63.532;2022-12-10T03:38:16;19.20;;;2.30;;
44036;SDS011;62488;-37.670;-63.532;2022-12-10T03:40:44;11.20;;;1.83;;
44036;SDS011;62488;-37.670;-63.532;2022-12-10T03:43:15;8.00;;;1.77;;
44036;SDS011;62488;-37.670;-63.532;2022-12-10T03:45:42;15.45;;;2.50;;
44036;SDS011;62488;-37.670;-63.532;2022-12-10T03:48:10;22.48;;;2.58;;
44036;SDS011;62488;-37.670;-63.532;2022-12-10T03:50:38;14.95;;;1.95;;
44036;SDS011;62488;-37.670;-63.532;2022-12-10T03:53:05;9.38;;;1.55;;
44036;SDS011;62488;-37.670;-63.532;2022-12-10T03:55:33;9.30;;;1.85;;
44036;SDS011;62488;-37.670;-63.532;2022-12-10T03:58:00;7.45;;;1.60;;
44036;SDS011;62488;-37.670;-63.532;2022-12-10T04:00:27;8.23;;;1.77;;
44036;SDS011;62488;-37.670;-63.532;2022-12-10T04:02:54;16.88;;;2.17;;
44036;SDS011;62488;-37.670;-63.532;2022-12-10T04:05:21;11.90;;;1.77;;
44036;SDS011;62488;-37.670;-63.532;2022-12-10T04:07:48;15.27;;;1.80;;
44036;SDS011;62488;-37.670;-63.532;2022-12-10T04:10:15;8.38;;;2.30;;
44036;SDS011;62488;-37.670;-63.532;2022-12-10T04:12:42;10.07;;;2.22;;
44036;SDS011;62488;-37.670;-63.532;2022-12-10T04:15:29;14.23;;;2.40;;
44036;SDS011;62488;-37.670;-63.532;2022-12-10T04:18:15;10.77;;;1.70;;
44036;SDS011;62488;-37.670;-63.532;2022-12-10T04:20:44;17.63;;;2.25;;
44036;SDS011;62488;-37.670;-63.532;2022-12-10T04:23:29;21.95;;;3.20;;
44036;SDS011;62488;-37.670;-63.532;2022-12-10T04:26:14;16.17;;;3.03;;
44036;SDS011;62488;-37.670;-63.532;2022-12-10T04:28:59;18.98;;;2.95;;
44036;SDS011;62488;-37.670;-63.532;2022-12-10T04:31:26;18.83;;;2.88;;
44036;SDS011;62488;-37.670;-63.532;2022-12-10T04:33:54;12.07;;;2.45;;
44036;SDS011;62488;-37.670;-63.532;2022-12-10T04:36:21;25.20;;;3.10;;
44036;SDS011;62488;-37.670;-63.532;2022-12-10T04:38:48;20.20;;;3.95;;
44036;SDS011;62488;-37.670;-63.532;2022-12-10T04:41:16;10.90;;;2.33;;
44036;SDS011;62488;-37.670;-63.532;2022-12-10T04:43:42;23.10;;;2.40;;
44036;SDS011;62488;-37.670;-63.532;2022-12-10T04:46:10;21.33;;;3.33;;
44036;SDS011;62488;-37.670;-63.532;2022-12-10T04:48:38;10.20;;;2.83;;
44036;SDS011;62488;-37.670;-63.532;2022-12-10T04:51:05;24.33;;;3.78;;
44036;SDS011;62488;-37.670;-63.532;2022-12-10T04:53:33;20.77;;;2.90;;
44036;SDS011;62488;-37.670;-63.532;2022-12-10T04:56:00;18.75;;;2.60;;
44036;SDS011;62488;-37.670;-63.532;2022-12-10T04:58:27;25.40;;;3.42;;
44036;SDS011;62488;-37.670;-63.532;2022-12-10T05:01:06;20.27;;;3.67;;
44036;SDS011;62488;-37.670;-63.532;2022-12-10T05:03:35;7.63;;;2.40;;
44036;SDS011;62488;-37.670;-63.532;2022-12-10T05:06:07;17.48;;;2.90;;
44036;SDS011;62488;-37.670;-63.532;2022-12-10T05:08:37;23.70;;;3.72;;
44036;SDS011;62488;-37.670;-63.532;2022-12-10T05:11:11;21.65;;;3.67;;
44036;SDS011;62488;-37.670;-63.532;2022-12-10T05:13:42;15.57;;;3.22;;
44036;SDS011;62488;-37.670;-63.532;2022-12-10T05:16:11;29.52;;;4.18;;
44036;SDS011;62488;-37.670;-63.532;2022-12-10T05:18:40;23.65;;;3.30;;
44036;SDS011;62488;-37.670;-63.532;2022-12-10T05:21:09;38.03;;;4.85;;
44036;SDS011;62488;-37.670;-63.532;2022-12-10T05:23:43;43.17;;;4.90;;
44036;SDS011;62488;-37.670;-63.532;2022-12-10T05:28:42;33.97;;;4.78;;
44036;SDS011;62488;-37.670;-63.532;2022-12-10T05:31:12;50.97;;;5.25;;
44036;SDS011;62488;-37.670;-63.532;2022-12-10T05:33:39;32.70;;;4.57;;
44036;SDS011;62488;-37.670;-63.532;2022-12-10T05:36:06;34.90;;;4.13;;
44036;SDS011;62488;-37.670;-63.532;2022-12-10T05:38:36;28.25;;;4.95;;
44036;SDS011;62488;-37.670;-63.532;2022-12-10T05:41:04;27.13;;;4.72;;
44036;SDS011;62488;-37.670;-63.532;2022-12-10T05:43:34;39.20;;;4.47;;
44036;SDS011;62488;-37.670;-63.532;2022-12-10T05:46:01;29.40;;;4.68;;
44036;SDS011;62488;-37.670;-63.532;2022-12-10T05:48:30;34.27;;;4.63;;
44036;SDS011;62488;-37.670;-63.532;2022-12-10T05:50:57;33.65;;;5.18;;
44036;SDS011;62488;-37.670;-63.532;2022-12-10T05:53:28;23.17;;;3.53;;
44036;SDS011;62488;-37.670;-63.532;2022-12-10T05:56:00;33.45;;;5.35;;
44036;SDS011;62488;-37.670;-63.532;2022-12-10T05:58:28;27.70;;;4.70;;
44036;SDS011;62488;-37.670;-63.532;2022-12-10T06:00:57;32.97;;;4.90;;
44036;SDS011;62488;-37.670;-63.532;2022-12-10T06:03:24;27.58;;;4.95;;
44036;SDS011;62488;-37.670;-63.532;2022-12-10T06:05:53;41.38;;;5.53;;
44036;SDS011;62488;-37.670;-63.532;2022-12-10T06:08:20;27.08;;;5.00;;
44036;SDS011;62488;-37.670;-63.532;2022-12-10T06:10:48;42.15;;;4.93;;
44036;SDS011;62488;-37.670;-63.532;2022-12-10T06:13:15;35.80;;;4.85;;
44036;SDS011;62488;-37.670;-63.532;2022-12-10T06:15:46;20.58;;;4.38;;
44036;SDS011;62488;-37.670;-63.532;2022-12-10T06:18:13;35.10;;;5.82;;
44036;SDS011;62488;-37.670;-63.532;2022-12-10T06:20:40;29.80;;;5.88;;
44036;SDS011;62488;-37.670;-63.532;2022-12-10T06:23:08;38.58;;;5.97;;
44036;SDS011;62488;-37.670;-63.532;2022-12-10T06:25:37;35.83;;;5.07;;
44036;SDS011;62488;-37.670;-63.532;2022-12-10T06:28:06;42.70;;;5.18;;
44036;SDS011;62488;-37.670;-63.532;2022-12-10T06:30:34;27.33;;;4.90;;
44036;SDS011;62488;-37.670;-63.532;2022-12-10T06:33:01;38.10;;;5.18;;
44036;SDS011;62488;-37.670;-63.532;2022-12-10T06:35:28;33.45;;;5.55;;
44036;SDS011;62488;-37.670;-63.532;2022-12-10T06:37:55;41.22;;;5.97;;
44036;SDS011;62488;-37.670;-63.532;2022-12-10T06:40:23;42.83;;;5.65;;
44036;SDS011;62488;-37.670;-63.532;2022-12-10T06:42:51;46.03;;;7.22;;
44036;SDS011;62488;-37.670;-63.532;2022-12-10T06:45:18;41.42;;;4.88;;
44036;SDS011;62488;-37.670;-63.532;2022-12-10T06:47:45;33.88;;;5.47;;
44036;SDS011;62488;-37.670;-63.532;2022-12-10T06:50:13;30.48;;;5.50;;
44036;SDS011;62488;-37.670;-63.532;2022-12-10T06:52:42;40.80;;;5.53;;
44036;SDS011;62488;-37.670;-63.532;2022-12-10T06:55:09;31.13;;;4.97;;
44036;SDS011;62488;-37.670;-63.532;2022-12-10T06:57:38;38.20;;;5.93;;
44036;SDS011;62488;-37.670;-63.532;2022-12-10T07:00:06;28.98;;;7.15;;
44036;SDS011;62488;-37.670;-63.532;2022-12-10T07:02:34;36.67;;;5.30;;
44036;SDS011;62488;-37.670;-63.532;2022-12-10T07:05:06;36.70;;;6.10;;
44036;SDS011;62488;-37.670;-63.532;2022-12-10T07:07:34;29.98;;;5.28;;
44036;SDS011;62488;-37.670;-63.532;2022-12-10T07:10:02;33.15;;;4.90;;
44036;SDS011;62488;-37.670;-63.532;2022-12-10T07:12:30;43.40;;;6.28;;
44036;SDS011;62488;-37.670;-63.532;2022-12-10T07:14:57;46.00;;;5.05;;
44036;SDS011;62488;-37.670;-63.532;2022-12-10T07:17:24;45.72;;;5.32;;
44036;SDS011;62488;-37.670;-63.532;2022-12-10T07:19:51;35.22;;;5.93;;
44036;SDS011;62488;-37.670;-63.532;2022-12-10T07:22:19;29.75;;;5.10;;
44036;SDS011;62488;-37.670;-63.532;2022-12-10T07:24:47;35.80;;;6.13;;
44036;SDS011;62488;-37.670;-63.532;2022-12-10T07:27:15;39.03;;;6.45;;
44036;SDS011;62488;-37.670;-63.532;2022-12-10T07:29:44;36.13;;;5.63;;
44036;SDS011;62488;-37.670;-63.532;2022-12-10T07:32:11;34.70;;;5.30;;
44036;SDS011;62488;-37.670;-63.532;2022-12-10T07:34:39;33.47;;;5.00;;
44036;SDS011;62488;-37.670;-63.532;2022-12-10T07:37:06;34.78;;;5.75;;
44036;SDS011;62488;-37.670;-63.532;2022-12-10T07:39:35;31.50;;;4.68;;
44036;SDS011;62488;-37.670;-63.532;2022-12-10T07:42:05;32.45;;;6.03;;
44036;SDS011;62488;-37.670;-63.532;2022-12-10T07:44:32;27.17;;;6.15;;
44036;SDS011;62488;-37.670;-63.532;2022-12-10T07:46:59;39.45;;;5.38;;
44036;SDS011;62488;-37.670;-63.532;2022-12-10T07:49:26;26.45;;;4.55;;
44036;SDS011;62488;-37.670;-63.532;2022-12-10T07:51:54;43.88;;;5.97;;
44036;SDS011;62488;-37.670;-63.532;2022-12-10T07:54:21;30.02;;;5.47;;
44036;SDS011;62488;-37.670;-63.532;2022-12-10T07:56:50;41.58;;;5.75;;
44036;SDS011;62488;-37.670;-63.532;2022-12-10T07:59:20;36.50;;;5.68;;
44036;SDS011;62488;-37.670;-63.532;2022-12-10T08:01:47;32.35;;;4.95;;
44036;SDS011;62488;-37.670;-63.532;2022-12-10T08:04:15;36.72;;;5.63;;
44036;SDS011;62488;-37.670;-63.532;2022-12-10T08:06:41;59.55;;;7.07;;
44036;SDS011;62488;-37.670;-63.532;2022-12-10T08:09:09;31.30;;;5.80;;
44036;SDS011;62488;-37.670;-63.532;2022-12-10T08:11:37;45.25;;;6.32;;
44036;SDS011;62488;-37.670;-63.532;2022-12-10T08:14:04;31.73;;;4.63;;
44036;SDS011;62488;-37.670;-63.532;2022-12-10T08:16:31;37.97;;;5.57;;
44036;SDS011;62488;-37.670;-63.532;2022-12-10T08:18:59;33.33;;;5.45;;
44036;SDS011;62488;-37.670;-63.532;2022-12-10T08:21:29;38.38;;;4.65;;
44036;SDS011;62488;-37.670;-63.532;2022-12-10T08:23:57;42.90;;;5.15;;
44036;SDS011;62488;-37.670;-63.532;2022-12-10T08:26:26;43.55;;;6.40;;
44036;SDS011;62488;-37.670;-63.532;2022-12-10T08:28:55;36.42;;;5.45;;
44036;SDS011;62488;-37.670;-63.532;2022-12-10T08:31:23;35.08;;;5.35;;
44036;SDS011;62488;-37.670;-63.532;2022-12-10T08:33:51;33.83;;;4.82;;
44036;SDS011;62488;-37.670;-63.532;2022-12-10T08:36:19;32.30;;;6.90;;
44036;SDS011;62488;-37.670;-63.532;2022-12-10T08:38:46;44.35;;;5.90;;
44036;SDS011;62488;-37.670;-63.532;2022-12-10T08:43:42;49.13;;;7.15;;
44036;SDS011;62488;-37.670;-63.532;2022-12-10T08:46:10;33.70;;;5.50;;
44036;SDS011;62488;-37.670;-63.532;2022-12-10T08:48:38;24.40;;;5.97;;
44036;SDS011;62488;-37.670;-63.532;2022-12-10T08:51:05;47.05;;;6.13;;
44036;SDS011;62488;-37.670;-63.532;2022-12-10T08:53:36;32.08;;;5.47;;
44036;SDS011;62488;-37.670;-63.532;2022-12-10T08:56:05;36.15;;;5.10;;
44036;SDS011;62488;-37.670;-63.532;2022-12-10T08:58:33;34.42;;;4.85;;
44036;SDS011;62488;-37.670;-63.532;2022-12-10T09:01:07;25.52;;;4.78;;
44036;SDS011;62488;-37.670;-63.532;2022-12-10T09:03:37;44.88;;;5.53;;
44036;SDS011;62488;-37.670;-63.532;2022-12-10T09:06:06;32.83;;;5.47;;
44036;SDS011;62488;-37.670;-63.532;2022-12-10T09:08:36;33.65;;;5.85;;
44036;SDS011;62488;-37.670;-63.532;2022-12-10T09:11:07;34.33;;;5.95;;
44036;SDS011;62488;-37.670;-63.532;2022-12-10T09:13:39;28.92;;;4.82;;
44036;SDS011;62488;-37.670;-63.532;2022-12-10T09:16:06;38.78;;;4.35;;
44036;SDS011;62488;-37.670;-63.532;2022-12-10T09:18:34;25.38;;;4.90;;
44036;SDS011;62488;-37.670;-63.532;2022-12-10T09:21:04;34.42;;;4.47;;
44036;SDS011;62488;-37.670;-63.532;2022-12-10T09:23:32;25.98;;;5.32;;
44036;SDS011;62488;-37.670;-63.532;2022-12-10T09:26:00;31.90;;;5.32;;
44036;SDS011;62488;-37.670;-63.532;2022-12-10T09:28:32;28.70;;;4.95;;
44036;SDS011;62488;-37.670;-63.532;2022-12-10T09:31:00;33.00;;;5.82;;
44036;SDS011;62488;-37.670;-63.532;2022-12-10T09:33:28;42.97;;;5.53;;
44036;SDS011;62488;-37.670;-63.532;2022-12-10T09:35:55;32.15;;;5.07;;
44036;SDS011;62488;-37.670;-63.532;2022-12-10T09:38:23;31.30;;;4.97;;
44036;SDS011;62488;-37.670;-63.532;2022-12-10T09:40:56;62.28;;;7.97;;
44036;SDS011;62488;-37.670;-63.532;2022-12-10T09:43:46;37.10;;;6.53;;
44036;SDS011;62488;-37.670;-63.532;2022-12-10T09:46:55;28.85;;;6.45;;
44036;SDS011;62488;-37.670;-63.532;2022-12-10T09:51:55;33.60;;;5.25;;
44036;SDS011;62488;-37.670;-63.532;2022-12-10T09:54:26;32.83;;;4.47;;
44036;SDS011;62488;-37.670;-63.532;2022-12-10T09:56:59;43.95;;;6.75;;
44036;SDS011;62488;-37.670;-63.532;2022-12-10T09:59:30;45.15;;;6.03;;
44036;SDS011;62488;-37.670;-63.532;2022-12-10T10:05:20;35.67;;;5.90;;
44036;SDS011;62488;-37.670;-63.532;2022-12-10T10:07:48;28.50;;;4.65;;
44036;SDS011;62488;-37.670;-63.532;2022-12-10T10:10:23;40.00;;;5.45;;
44036;SDS011;62488;-37.670;-63.532;2022-12-10T10:13:34;32.70;;;5.00;;
44036;SDS011;62488;-37.670;-63.532;2022-12-10T10:16:22;31.63;;;5.35;;
44036;SDS011;62488;-37.670;-63.532;2022-12-10T10:18:57;30.33;;;4.97;;
44036;SDS011;62488;-37.670;-63.532;2022-12-10T10:21:36;32.72;;;5.40;;
44036;SDS011;62488;-37.670;-63.532;2022-12-10T10:24:06;38.20;;;4.93;;
44036;SDS011;62488;-37.670;-63.532;2022-12-10T10:26:39;27.77;;;4.50;;
44036;SDS011;62488;-37.670;-63.532;2022-12-10T10:29:10;30.95;;;5.22;;
44036;SDS011;62488;-37.670;-63.532;2022-12-10T10:31:40;20.13;;;3.95;;
44036;SDS011;62488;-37.670;-63.532;2022-12-10T10:34:20;37.08;;;4.85;;
44036;SDS011;62488;-37.670;-63.532;2022-12-10T10:36:54;31.17;;;4.07;;
44036;SDS011;62488;-37.670;-63.532;2022-12-10T10:39:29;28.50;;;4.90;;
44036;SDS011;62488;-37.670;-63.532;2022-12-10T10:41:58;22.30;;;4.60;;
44036;SDS011;62488;-37.670;-63.532;2022-12-10T10:44:36;29.95;;;5.05;;
44036;SDS011;62488;-37.670;-63.532;2022-12-10T10:47:23;31.85;;;4.82;;
44036;SDS011;62488;-37.670;-63.532;2022-12-10T10:49:53;22.98;;;4.72;;
44036;SDS011;62488;-37.670;-63.532;2022-12-10T10:52:20;22.85;;;3.70;;
44036;SDS011;62488;-37.670;-63.532;2022-12-10T10:54:47;19.83;;;5.05;;
44036;SDS011;62488;-37.670;-63.532;2022-12-10T10:57:23;14.55;;;3.50;;
44036;SDS011;62488;-37.670;-63.532;2022-12-10T10:59:51;23.35;;;5.00;;
44036;SDS011;62488;-37.670;-63.532;2022-12-10T11:02:38;23.50;;;3.97;;
44036;SDS011;62488;-37.670;-63.532;2022-12-10T11:05:08;24.65;;;4.13;;
44036;SDS011;62488;-37.670;-63.532;2022-12-10T11:08:04;15.90;;;3.40;;
44036;SDS011;62488;-37.670;-63.532;2022-12-10T11:10:50;25.33;;;4.22;;
44036;SDS011;62488;-37.670;-63.532;2022-12-10T11:13:32;18.23;;;3.83;;
44036;SDS011;62488;-37.670;-63.532;2022-12-10T11:16:09;22.17;;;4.30;;
44036;SDS011;62488;-37.670;-63.532;2022-12-10T11:18:58;35.10;;;4.13;;
44036;SDS011;62488;-37.670;-63.532;2022-12-10T11:21:30;19.75;;;3.67;;
44036;SDS011;62488;-37.670;-63.532;2022-12-10T11:23:59;18.92;;;3.33;;
44036;SDS011;62488;-37.670;-63.532;2022-12-10T11:32:20;16.05;;;3.58;;
44036;SDS011;62488;-37.670;-63.532;2022-12-10T11:40:50;17.35;;;2.78;;
44036;SDS011;62488;-37.670;-63.532;2022-12-10T11:43:34;15.40;;;3.28;;
44036;SDS011;62488;-37.670;-63.532;2022-12-10T11:52:11;21.20;;;3.38;;
44036;SDS011;62488;-37.670;-63.532;2022-12-10T12:00:52;14.73;;;2.28;;
44036;SDS011;62488;-37.670;-63.532;2022-12-10T12:03:45;13.32;;;2.60;;
44036;SDS011;62488;-37.670;-63.532;2022-12-10T12:06:36;15.00;;;3.40;;
44036;SDS011;62488;-37.670;-63.532;2022-12-10T12:14:44;26.17;;;3.92;;
44036;SDS011;62488;-37.670;-63.532;2022-12-10T12:17:23;32.70;;;4.78;;
44036;SDS011;62488;-37.670;-63.532;2022-12-10T12:25:55;20.67;;;3.40;;
44036;SDS011;62488;-37.670;-63.532;2022-12-10T12:28:33;17.35;;;2.65;;
44036;SDS011;62488;-37.670;-63.532;2022-12-10T12:31:08;21.25;;;3.33;;
44036;SDS011;62488;-37.670;-63.532;2022-12-10T12:36:39;21.90;;;3.42;;
44036;SDS011;62488;-37.670;-63.532;2022-12-10T12:39:14;15.75;;;3.55;;
44036;SDS011;62488;-37.670;-63.532;2022-12-10T12:42:29;19.10;;;4.40;;
44036;SDS011;62488;-37.670;-63.532;2022-12-10T12:44:48;20.40;;;3.72;;
44036;SDS011;62488;-37.670;-63.532;2022-12-10T12:53:21;25.92;;;4.63;;
44036;SDS011;62488;-37.670;-63.532;2022-12-10T12:58:34;13.45;;;4.00;;
44036;SDS011;62488;-37.670;-63.532;2022-12-10T13:01:19;19.92;;;4.35;;
44036;SDS011;62488;-37.670;-63.532;2022-12-10T13:03:49;14.88;;;3.03;;
44036;SDS011;62488;-37.670;-63.532;2022-12-10T13:06:25;15.05;;;4.25;;
44036;SDS011;62488;-37.670;-63.532;2022-12-10T13:14:33;14.30;;;3.28;;
44036;SDS011;62488;-37.670;-63.532;2022-12-10T13:17:07;14.60;;;3.28;;
44036;SDS011;62488;-37.670;-63.532;2022-12-10T13:20:41;16.10;;;2.92;;
44036;SDS011;62488;-37.670;-63.532;2022-12-10T13:22:59;18.98;;;3.75;;
44036;SDS011;62488;-37.670;-63.532;2022-12-10T13:30:44;14.70;;;2.47;;
44036;SDS011;62488;-37.670;-63.532;2022-12-10T13:41:39;15.40;;;2.53;;
44036;SDS011;62488;-37.670;-63.532;2022-12-10T13:44:45;15.00;;;2.28;;
44036;SDS011;62488;-37.670;-63.532;2022-12-10T13:53:39;18.70;;;3.50;;
44036;SDS011;62488;-37.670;-63.532;2022-12-10T13:56:41;18.88;;;2.67;;
44036;SDS011;62488;-37.670;-63.532;2022-12-10T14:04:45;28.73;;;3.67;;
44036;SDS011;62488;-37.670;-63.532;2022-12-10T14:07:29;13.40;;;2.83;;
44036;SDS011;62488;-37.670;-63.532;2022-12-10T14:09:57;17.55;;;2.63;;
44036;SDS011;62488;-37.670;-63.532;2022-12-10T14:12:33;16.50;;;3.08;;
44036;SDS011;62488;-37.670;-63.532;2022-12-10T14:15:04;8.27;;;1.80;;
44036;SDS011;62488;-37.670;-63.532;2022-12-10T14:17:38;7.13;;;1.95;;
44036;SDS011;62488;-37.670;-63.532;2022-12-10T14:20:08;8.23;;;2.10;;
44036;SDS011;62488;-37.670;-63.532;2022-12-10T14:22:46;12.02;;;2.85;;
44036;SDS011;62488;-37.670;-63.532;2022-12-10T14:25:20;9.68;;;2.90;;
44036;SDS011;62488;-37.670;-63.532;2022-12-10T14:27:49;14.77;;;2.65;;
44036;SDS011;62488;-37.670;-63.532;2022-12-10T14:32:47;18.63;;;2.70;;
44036;SDS011;62488;-37.670;-63.532;2022-12-10T14:35:24;10.00;;;2.15;;
44036;SDS011;62488;-37.670;-63.532;2022-12-10T14:37:54;15.20;;;3.67;;
44036;SDS011;62488;-37.670;-63.532;2022-12-10T14:43:20;10.15;;;3.17;;
44036;SDS011;62488;-37.670;-63.532;2022-12-10T14:45:56;9.20;;;1.98;;
44036;SDS011;62488;-37.670;-63.532;2022-12-10T14:48:28;10.07;;;2.65;;
44036;SDS011;62488;-37.670;-63.532;2022-12-10T14:51:05;17.58;;;2.70;;
44036;SDS011;62488;-37.670;-63.532;2022-12-10T14:53:41;18.00;;;2.55;;
44036;SDS011;62488;-37.670;-63.532;2022-12-10T14:56:08;20.67;;;2.95;;
44036;SDS011;62488;-37.670;-63.532;2022-12-10T14:58:46;24.73;;;3.53;;
44036;SDS011;62488;-37.670;-63.532;2022-12-10T15:01:34;12.48;;;2.22;;
44036;SDS011;62488;-37.670;-63.532;2022-12-10T15:04:06;10.45;;;2.40;;
44036;SDS011;62488;-37.670;-63.532;2022-12-10T15:06:47;8.52;;;2.40;;
44036;SDS011;62488;-37.670;-63.532;2022-12-10T15:09:20;14.57;;;2.03;;
44036;SDS011;62488;-37.670;-63.532;2022-12-10T15:11:57;21.10;;;3.15;;
44036;SDS011;62488;-37.670;-63.532;2022-12-10T15:14:28;8.55;;;1.88;;
44036;SDS011;62488;-37.670;-63.532;2022-12-10T15:16:56;13.05;;;2.60;;
44036;SDS011;62488;-37.670;-63.532;2022-12-10T15:24:45;7.82;;;2.30;;
44036;SDS011;62488;-37.670;-63.532;2022-12-10T15:27:19;7.78;;;1.92;;
44036;SDS011;62488;-37.670;-63.532;2022-12-10T15:29:51;11.60;;;1.80;;
44036;SDS011;62488;-37.670;-63.532;2022-12-10T15:32:25;7.05;;;2.60;;
44036;SDS011;62488;-37.670;-63.532;2022-12-10T15:34:55;21.40;;;2.25;;
44036;SDS011;62488;-37.670;-63.532;2022-12-10T15:40:04;10.48;;;1.70;;
44036;SDS011;62488;-37.670;-63.532;2022-12-10T15:47:51;8.77;;;2.28;;
44036;SDS011;62488;-37.670;-63.532;2022-12-10T15:50:22;9.45;;;2.10;;
44036;SDS011;62488;-37.670;-63.532;2022-12-10T15:52:50;11.25;;;2.33;;
44036;SDS011;62488;-37.670;-63.532;2022-12-10T15:55:18;13.73;;;2.05;;
44036;SDS011;62488;-37.670;-63.532;2022-12-10T15:57:45;9.48;;;2.08;;
44036;SDS011;62488;-37.670;-63.532;2022-12-10T16:00:19;13.48;;;1.98;;
44036;SDS011;62488;-37.670;-63.532;2022-12-10T16:05:33;8.10;;;1.80;;
44036;SDS011;62488;-37.670;-63.532;2022-12-10T16:08:05;11.13;;;2.10;;
44036;SDS011;62488;-37.670;-63.532;2022-12-10T16:10:50;19.60;;;2.40;;
44036;SDS011;62488;-37.670;-63.532;2022-12-10T16:15:51;13.82;;;2.30;;
44036;SDS011;62488;-37.670;-63.532;2022-12-10T16:18:23;15.50;;;2.55;;
44036;SDS011;62488;-37.670;-63.532;2022-12-10T16:20:50;5.32;;;1.95;;
44036;SDS011;62488;-37.670;-63.532;2022-12-10T16:23:17;4.50;;;1.63;;
44036;SDS011;62488;-37.670;-63.532;2022-12-10T16:25:45;13.13;;;2.42;;
44036;SDS011;62488;-37.670;-63.532;2022-12-10T16:28:17;5.38;;;1.38;;
44036;SDS011;62488;-37.670;-63.532;2022-12-10T16:30:47;12.57;;;1.95;;
44036;SDS011;62488;-37.670;-63.532;2022-12-10T16:33:18;10.20;;;1.92;;
44036;SDS011;62488;-37.670;-63.532;2022-12-10T16:35:48;11.65;;;2.00;;
44036;SDS011;62488;-37.670;-63.532;2022-12-10T16:38:17;7.10;;;2.15;;
44036;SDS011;62488;-37.670;-63.532;2022-12-10T16:40:45;7.40;;;2.03;;